Time;durP1;ratioP1;P1;durP2;ratioP2;P2;SDS_P1;SDS_P2;PMS_P1;PMS_P2;Temp;Humidity;BMP_temperature;BMP_pressure;BME280_temperature;BME280_humidity;BME280_pressure;Samples;Min_cycle;Max_cycle;Signal;HPM_P1;HPM_P2
2021/08/16 00:01:54;;;;;;;28.35;18.87;;;;;;;18.00;100.00;100854.20;1726340;83;21009;-82
2021/08/16 00:04:21;;;;;;;35.80;19.30;;;;;;;17.94;100.00;100849.06;1703333;83;21086;-84
2021/08/16 00:06:50;;;;;;;28.47;19.92;;;;;;;17.91;100.00;100850.19;1726264;83;21053;-83
2021/08/16 00:09:18;;;;;;;24.20;18.20;;;;;;;17.93;100.00;100852.69;1726290;83;21072;-83
2021/08/16 00:11:45;;;;;;;25.35;16.97;;;;;;;17.93;100.00;100853.49;1726111;81;21614;-82
2021/08/16 00:14:12;;;;;;;26.10;17.87;;;;;;;17.91;100.00;100850.69;1715806;82;21051;-82
2021/08/16 00:16:40;;;;;;;23.00;16.42;;;;;;;17.86;100.00;100855.61;1738219;81;22313;-81
2021/08/16 00:19:07;;;;;;;22.27;16.90;;;;;;;17.79;100.00;100858.86;1732450;81;20950;-83
2021/08/16 00:21:36;;;;;;;26.02;17.60;;;;;;;17.75;100.00;100854.05;1737954;81;21437;-81
2021/08/16 00:24:04;;;;;;;23.62;17.48;;;;;;;17.69;100.00;100856.00;1726146;81;21029;-81
2021/08/16 00:26:33;;;;;;;24.12;17.20;;;;;;;17.59;100.00;100858.25;1756321;81;21437;-82
2021/08/16 00:29:01;;;;;;;23.32;18.37;;;;;;;17.45;100.00;100858.35;1719451;81;21848;-81
2021/08/16 00:31:30;;;;;;;26.37;18.20;;;;;;;17.35;100.00;100864.20;1739328;82;21738;-79
2021/08/16 00:33:57;;;;;;;24.10;18.50;;;;;;;17.27;100.00;100853.11;1710019;81;21429;-82
2021/08/16 00:36:27;;;;;;;22.25;17.23;;;;;;;17.27;100.00;100846.53;1739328;81;21455;-81
2021/08/16 00:38:55;;;;;;;24.37;17.48;;;;;;;17.21;100.00;100844.52;1709782;82;21092;-83
2021/08/16 00:41:23;;;;;;;22.95;17.80;;;;;;;17.10;100.00;100844.78;1739311;82;21046;-82
2021/08/16 00:43:52;;;;;;;23.47;17.40;;;;;;;16.94;100.00;100844.98;1739410;82;21092;-79
2021/08/16 00:46:22;;;;;;;23.70;17.50;;;;;;;16.88;100.00;100846.85;1709969;81;21096;-81
2021/08/16 00:48:50;;;;;;;25.65;19.15;;;;;;;16.85;100.00;100843.23;1739637;81;21513;-81
2021/08/16 00:51:17;;;;;;;22.85;17.65;;;;;;;16.88;100.00;100845.53;1738839;82;20997;-81
2021/08/16 00:53:47;;;;;;;22.93;18.50;;;;;;;16.89;100.00;100841.94;1724322;82;21036;-81
2021/08/16 00:56:16;;;;;;;23.83;17.82;;;;;;;16.81;100.00;100845.80;1718242;82;20985;-83
2021/08/16 01:01:24;;;;;;;25.60;19.60;;;;;;;16.58;100.00;100855.45;1709703;82;21049;-82
2021/08/16 01:03:51;;;;;;;25.90;18.20;;;;;;;16.53;100.00;100848.52;1720581;81;21025;-82
2021/08/16 01:06:19;;;;;;;21.55;19.15;;;;;;;16.50;100.00;100850.11;1709817;82;21045;-81
2021/08/16 01:08:49;;;;;;;22.27;18.87;;;;;;;16.49;100.00;100847.98;1739329;81;21280;-81
2021/08/16 01:11:19;;;;;;;26.37;19.23;;;;;;;16.47;100.00;100843.83;1739250;82;21052;-82
2021/08/16 01:13:49;;;;;;;23.60;18.62;;;;;;;16.41;100.00;100846.59;1739561;81;21108;-82
2021/08/16 01:16:21;;;;;;;22.80;18.62;;;;;;;16.35;100.00;100845.37;1739507;82;21091;-81
2021/08/16 01:18:50;;;;;;;23.40;18.90;;;;;;;16.32;100.00;100846.16;1730088;81;21025;-81
2021/08/16 01:21:18;;;;;;;24.40;19.52;;;;;;;16.31;100.00;100846.63;1725400;81;21017;-82
2021/08/16 01:23:47;;;;;;;22.48;19.62;;;;;;;16.29;100.00;100847.28;1685920;82;21053;-81
2021/08/16 01:26:16;;;;;;;24.15;19.35;;;;;;;16.24;100.00;100838.52;1715025;81;21005;-81
2021/08/16 01:28:43;;;;;;;36.63;20.72;;;;;;;16.27;100.00;100837.39;1733293;80;21413;-81
2021/08/16 01:31:11;;;;;;;27.05;20.75;;;;;;;16.32;100.00;100846.97;1772501;79;21591;-82
2021/08/16 01:33:39;;;;;;;27.35;20.25;;;;;;;16.46;100.00;100852.72;1775001;79;21095;-82
2021/08/16 01:36:07;;;;;;;29.25;19.98;;;;;;;16.56;100.00;100845.56;1727576;81;21005;-82
2021/08/16 01:38:38;;;;;;;25.40;20.30;;;;;;;16.57;100.00;100847.23;1727866;80;21163;-81
2021/08/16 01:41:06;;;;;;;24.98;19.92;;;;;;;16.53;100.00;100851.14;1727625;81;20961;-80
2021/08/16 01:43:33;;;;;;;26.25;20.00;;;;;;;16.48;100.00;100854.68;1757312;79;21072;-80
2021/08/16 01:46:01;;;;;;;27.13;21.48;;;;;;;16.44;100.00;100851.52;1784325;79;21104;-84
2021/08/16 01:48:27;;;;;;;26.23;21.87;;;;;;;16.43;100.00;100855.62;1757726;80;21566;-83
2021/08/16 01:50:56;;;;;;;24.95;20.77;;;;;;;16.42;100.00;100852.66;1784408;79;20956;-83
2021/08/16 01:53:23;;;;;;;27.07;21.20;;;;;;;16.38;100.00;100854.75;1784473;79;21392;-81
2021/08/16 01:55:50;;;;;;;25.62;21.07;;;;;;;16.33;100.00;100849.12;1784574;79;21145;-81
2021/08/16 01:58:17;;;;;;;26.07;21.55;;;;;;;16.32;100.00;100844.84;1784413;79;20990;-82
2021/08/16 02:00:44;;;;;;;30.25;20.77;;;;;;;16.30;100.00;100845.47;1784574;79;21053;-81
2021/08/16 02:03:11;;;;;;;26.93;20.95;;;;;;;16.31;100.00;100847.94;1757729;80;21064;-81
2021/08/16 02:05:40;;;;;;;23.60;20.85;;;;;;;16.32;100.00;100846.16;1757818;79;22196;-81
2021/08/16 02:08:08;;;;;;;28.45;20.25;;;;;;;16.31;100.00;100844.49;1757759;79;21087;-84
2021/08/16 02:10:37;;;;;;;29.20;20.85;;;;;;;16.27;100.00;100841.80;1784456;79;21004;-81
2021/08/16 02:13:04;;;;;;;28.52;22.62;;;;;;;16.27;100.00;100847.06;1784334;79;21103;-81
2021/08/16 02:15:32;;;;;;;28.52;23.20;;;;;;;16.30;100.00;100847.63;1757556;79;21072;-82
2021/08/16 02:17:59;;;;;;;27.85;22.30;;;;;;;16.34;100.00;100851.59;1757793;80;21005;-82
2021/08/16 02:20:26;;;;;;;27.10;22.40;;;;;;;16.36;100.00;100851.44;1757563;80;21531;-82
2021/08/16 02:22:54;;;;;;;30.97;21.57;;;;;;;16.40;100.00;100856.25;1720281;81;21543;-82
2021/08/16 02:25:23;;;;;;;29.37;22.00;;;;;;;16.46;100.00;100856.66;1737644;81;21020;-82
2021/08/16 02:27:53;;;;;;;26.52;21.07;;;;;;;16.51;100.00;100847.83;1734567;81;21530;-82
2021/08/16 02:30:20;;;;;;;25.17;19.10;;;;;;;16.51;100.00;100852.58;1755162;80;21007;-82
2021/08/16 02:32:48;;;;;;;24.98;19.20;;;;;;;16.48;100.00;100854.22;1751110;80;21058;-82
2021/08/16 02:35:15;;;;;;;22.73;18.32;;;;;;;16.39;100.00;100862.48;1690341;84;21041;-82
2021/08/16 02:37:44;;;;;;;26.20;20.50;;;;;;;16.28;100.00;100856.60;1737779;82;21037;-81
2021/08/16 02:40:13;;;;;;;27.52;20.00;;;;;;;16.17;100.00;100862.41;1709203;83;21021;-81
2021/08/16 02:42:42;;;;;;;21.80;18.40;;;;;;;16.06;100.00;100867.34;1737888;82;21539;-81
2021/08/16 02:45:11;;;;;;;24.20;20.05;;;;;;;16.00;100.00;100865.31;1709459;82;21785;-81
2021/08/16 02:47:39;;;;;;;27.07;20.17;;;;;;;15.96;100.00;100868.36;1738367;82;21037;-81
2021/08/16 02:50:07;;;;;;;26.02;20.57;;;;;;;15.98;100.00;100867.74;1733159;81;21064;-80
2021/08/16 02:52:36;;;;;;;27.85;21.23;;;;;;;16.00;100.00;100865.31;1709581;84;21028;-83
2021/08/16 02:55:05;;;;;;;27.40;19.65;;;;;;;16.06;100.00;100862.09;1709489;81;21065;-84
2021/08/16 02:57:31;;;;;;;23.12;18.70;;;;;;;16.09;100.00;100867.06;1709341;82;21807;-81
2021/08/16 03:00:00;;;;;;;23.27;19.55;;;;;;;16.06;100.00;100874.41;1739256;81;21051;-81
2021/08/16 03:02:28;;;;;;;25.50;18.80;;;;;;;15.94;100.00;100881.65;1689749;82;20977;-82
2021/08/16 03:04:55;;;;;;;23.90;19.77;;;;;;;15.84;100.00;100876.44;1709125;83;21060;-82
2021/08/16 03:07:22;;;;;;;23.62;18.57;;;;;;;15.82;100.00;100884.09;1686329;82;21080;-82
2021/08/16 03:09:49;;;;;;;30.97;19.23;;;;;;;15.81;100.00;100885.06;1691656;83;21952;-81
2021/08/16 03:12:18;;;;;;;35.13;21.15;;;;;;;15.77;100.00;100887.14;1697692;83;22204;-82
2021/08/16 03:14:45;;;;;;;44.50;28.55;;;;;;;15.73;100.00;100887.92;1695522;82;21017;-81
2021/08/16 03:17:13;;;;;;;54.15;32.88;;;;;;;15.71;100.00;100885.91;1712399;82;21076;-81
2021/08/16 03:19:40;;;;;;;56.55;26.42;;;;;;;15.80;100.00;100880.77;1705256;82;21018;-82
2021/08/16 03:22:07;;;;;;;28.27;20.85;;;;;;;15.91;100.00;100882.77;1709050;81;21504;-82
2021/08/16 03:24:36;;;;;;;24.50;20.25;;;;;;;16.02;100.00;100885.70;1757208;79;20980;-82
2021/08/16 03:27:03;;;;;;;22.22;18.95;;;;;;;16.06;100.00;100884.42;1784352;79;21020;-83
2021/08/16 03:29:31;;;;;;;25.80;19.77;;;;;;;16.08;100.00;100885.11;1754795;80;21092;-82
2021/08/16 03:32:00;;;;;;;23.90;19.15;;;;;;;16.09;100.00;100884.14;1774119;80;21091;-83
2021/08/16 03:34:28;;;;;;;20.90;18.75;;;;;;;16.11;100.00;100883.17;1754571;80;21101;-82
2021/08/16 03:36:56;;;;;;;20.92;18.65;;;;;;;16.15;100.00;100885.84;1734613;81;21070;-83
2021/08/16 03:39:23;;;;;;;22.00;18.85;;;;;;;16.18;100.00;100882.93;1734584;81;21121;-83
2021/08/16 03:41:50;;;;;;;20.97;18.32;;;;;;;16.26;100.00;100886.16;1734915;80;20996;-82
2021/08/16 03:44:17;;;;;;;21.40;18.15;;;;;;;16.33;100.00;100885.41;1734644;80;21536;-82
2021/08/16 03:46:44;;;;;;;21.23;19.02;;;;;;;16.37;100.00;100886.79;1732014;81;21048;-82
2021/08/16 03:49:11;;;;;;;20.90;18.02;;;;;;;16.45;100.00;100893.11;1693741;83;20955;-83
2021/08/16 03:51:39;;;;;;;23.30;19.37;;;;;;;16.52;100.00;100888.91;1727240;81;21048;-83
2021/08/16 03:54:06;;;;;;;23.20;18.20;;;;;;;16.59;100.00;100891.75;1776821;79;21068;-83
2021/08/16 03:56:33;;;;;;;23.38;18.45;;;;;;;16.66;100.00;100894.97;1730628;81;21518;-82
2021/08/16 03:59:01;;;;;;;23.87;18.12;;;;;;;16.74;100.00;100890.30;1676203;84;21614;-82
2021/08/16 04:01:29;;;;;;;23.22;18.62;;;;;;;16.84;100.00;100887.59;1674155;84;21577;-82
2021/08/16 04:04:00;;;;;;;25.62;20.43;;;;;;;16.91;100.00;100889.95;1727741;82;21040;-82
2021/08/16 04:06:25;;;;;;;24.98;19.82;;;;;;;16.98;100.00;100892.85;1744145;81;21400;-84
2021/08/16 04:08:52;;;;;;;21.45;17.57;;;;;;;17.06;100.00;100894.72;1727623;82;21028;-82
2021/08/16 04:11:20;;;;;;;22.75;19.27;;;;;;;17.13;100.00;100891.34;1730246;79;21022;-83
2021/08/16 04:13:46;;;;;;;21.25;18.70;;;;;;;17.23;100.00;100891.25;1736239;81;21064;-83
2021/08/16 04:16:13;;;;;;;20.23;17.50;;;;;;;17.34;100.00;100892.33;1733196;80;21056;-83
2021/08/16 04:18:42;;;;;;;20.88;17.50;;;;;;;17.47;100.00;100896.36;1774537;79;21040;-82
2021/08/16 04:21:11;;;;;;;19.00;17.00;;;;;;;17.58;100.00;100893.48;1774567;79;21037;-81
2021/08/16 04:23:38;;;;;;;23.77;19.02;;;;;;;17.67;100.00;100894.34;1752649;80;21054;-83
2021/08/16 04:26:05;;;;;;;20.17;18.07;;;;;;;17.76;100.00;100903.95;1739890;81;21500;-81
2021/08/16 04:28:32;;;;;;;21.02;17.17;;;;;;;17.87;100.00;100905.97;1722460;82;21524;-82
2021/08/16 04:30:59;;;;;;;19.23;16.73;;;;;;;17.95;100.00;100906.02;1757648;80;21104;-82
2021/08/16 04:33:26;;;;;;;21.20;17.45;;;;;;;18.03;100.00;100913.18;1757428;80;20973;-84
2021/08/16 04:35:54;;;;;;;18.82;16.15;;;;;;;18.09;100.00;100907.27;1757680;80;21075;-82
2021/08/16 04:38:22;;;;;;;20.32;16.97;;;;;;;18.18;100.00;100908.97;1757337;79;21048;-82
2021/08/16 04:40:51;;;;;;;19.70;17.10;;;;;;;18.25;100.00;100908.66;1749416;79;20993;-81
2021/08/16 04:43:19;;;;;;;20.05;17.45;;;;;;;18.32;100.00;100910.66;1756508;80;20989;-82
2021/08/16 04:45:48;;;;;;;18.40;16.50;;;;;;;18.35;100.00;100912.48;1784281;79;21425;-83
2021/08/16 04:48:15;;;;;;;20.82;16.10;;;;;;;18.40;100.00;100908.05;1756265;79;21055;-82
2021/08/16 04:50:42;;;;;;;19.23;17.12;;;;;;;18.45;100.00;100911.05;1784755;79;21016;-83
2021/08/16 04:53:09;;;;;;;17.75;15.95;;;;;;;18.51;100.00;100912.23;1745793;80;21291;-82
2021/08/16 04:55:36;;;;;;;18.07;16.20;;;;;;;18.56;100.00;100912.05;1727614;81;21103;-81
2021/08/16 04:58:04;;;;;;;22.77;16.75;;;;;;;18.64;100.00;100913.06;1727608;81;21039;-80
2021/08/16 05:00:31;;;;;;;20.88;16.65;;;;;;;18.73;100.00;100920.85;1727514;80;21124;-83
2021/08/16 05:03:00;;;;;;;23.62;15.53;;;;;;;18.82;100.00;100921.68;1753301;80;21024;-80
2021/08/16 05:05:29;;;;;;;23.10;16.65;;;;;;;18.92;100.00;100920.23;1727901;80;20992;-82
2021/08/16 05:08:00;;;;;;;21.52;16.73;;;;;;;19.01;100.00;100927.17;1753592;80;21009;-82
2021/08/16 05:10:29;;;;;;;23.18;15.78;;;;;;;19.10;100.00;100923.23;1727902;80;21024;-83
2021/08/16 05:13:00;;;;;;;24.67;15.68;;;;;;;19.19;100.00;100924.38;1737423;79;21849;-80
2021/08/16 05:15:28;;;;;;;25.08;15.75;;;;;;;19.27;100.00;100927.53;1784534;79;21033;-83
2021/08/16 05:18:00;;;;;;;21.65;14.83;;;;;;;19.38;100.00;100930.33;1783890;79;21595;-80
2021/08/16 05:20:27;;;;;;;20.20;15.43;;;;;;;19.49;100.00;100927.36;1775213;79;21045;-84
2021/08/16 05:22:56;;;;;;;20.55;15.45;;;;;;;19.60;100.00;100930.16;1727832;81;20949;-83
2021/08/16 05:25:22;;;;;;;24.77;15.20;;;;;;;19.70;100.00;100930.80;1753492;80;21176;-83
2021/08/16 05:27:49;;;;;;;18.20;15.08;;;;;;;19.80;100.00;100929.77;1730745;80;21029;-84
2021/08/16 05:30:17;;;;;;;18.70;14.95;;;;;;;19.91;100.00;100927.33;1733582;81;21028;-83
2021/08/16 05:32:44;;;;;;;21.90;15.23;;;;;;;20.01;100.00;100932.73;1734732;79;20953;-82
2021/08/16 05:35:11;;;;;;;23.40;15.38;;;;;;;20.12;100.00;100924.09;1774847;79;20998;-82
2021/08/16 05:37:39;;;;;;;22.22;15.45;;;;;;;20.23;100.00;100926.89;1747234;80;21456;-82
2021/08/16 05:40:08;;;;;;;26.12;15.65;;;;;;;20.36;100.00;100931.11;1722469;81;21068;-83
2021/08/16 05:42:36;;;;;;;20.23;15.58;;;;;;;20.49;100.00;100930.05;1722601;82;20948;-85
2021/08/16 05:45:05;;;;;;;23.80;15.78;;;;;;;20.61;100.00;100929.16;1743601;81;21037;-83
2021/08/16 05:47:32;;;;;;;28.15;16.95;;;;;;;20.75;100.00;100924.98;1722891;81;21110;-85
2021/08/16 05:50:00;;;;;;;16.80;13.68;;;;;;;20.91;100.00;100931.98;1724624;80;22219;-81
2021/08/16 05:52:27;;;;;;;21.55;14.47;;;;;;;21.06;100.00;100924.11;1758998;80;21063;-82
2021/08/16 05:54:54;;;;;;;19.02;13.20;;;;;;;21.19;100.00;100925.35;1751215;79;22014;-83
2021/08/16 05:57:22;;;;;;;19.42;12.58;;;;;;;21.30;100.00;100931.53;1741440;80;21068;-82
2021/08/16 05:59:49;;;;;;;13.72;10.80;;;;;;;21.40;100.00;100932.59;1727782;79;21983;-82
2021/08/16 06:02:16;;;;;;;12.88;11.40;;;;;;;21.49;100.00;100937.34;1752110;80;21041;-82
2021/08/16 06:04:43;;;;;;;16.73;10.82;;;;;;;21.57;100.00;100938.10;1745176;80;21061;-82
2021/08/16 06:07:10;;;;;;;18.73;11.38;;;;;;;21.65;100.00;100933.23;1734563;79;21024;-82
2021/08/16 06:09:39;;;;;;;15.58;10.60;;;;;;;21.75;100.00;100937.75;1711997;81;21012;-82
2021/08/16 06:12:06;;;;;;;12.98;10.45;;;;;;;21.82;100.00;100936.53;1739587;80;21579;-83
2021/08/16 06:14:34;;;;;;;11.50;10.25;;;;;;;21.89;100.00;100944.59;1746682;80;21005;-83
2021/08/16 06:17:04;;;;;;;13.00;9.73;;;;;;;21.99;100.00;100941.66;1743611;81;21401;-83
2021/08/16 06:19:34;;;;;;;12.47;9.90;;;;;;;22.10;100.00;100941.21;1743430;81;21016;-81
2021/08/16 06:22:01;;;;;;;15.23;9.45;;;;;;;22.23;100.00;100943.22;1743783;81;21080;-82
2021/08/16 06:24:30;;;;;;;12.47;8.83;;;;;;;22.34;100.00;100940.08;1743840;81;21571;-82
2021/08/16 06:26:58;;;;;;;13.72;10.03;;;;;;;22.47;100.00;100940.77;1722534;82;21420;-82
2021/08/16 06:29:25;;;;;;;11.97;9.63;;;;;;;22.59;100.00;100938.45;1722708;81;21461;-82
2021/08/16 06:31:53;;;;;;;18.17;10.48;;;;;;;22.73;100.00;100937.27;1729901;80;21526;-82
2021/08/16 06:34:22;;;;;;;28.83;10.45;;;;;;;22.84;100.00;100935.45;1730284;80;21048;-82
2021/08/16 06:39:21;;;;;;;22.52;10.32;;;;;;;23.06;100.00;100936.28;1730629;81;21042;-82
2021/08/16 06:41:51;;;;;;;10.70;8.88;;;;;;;23.16;100.00;100939.42;1730089;80;21044;-82
2021/08/16 06:44:19;;;;;;;12.25;9.45;;;;;;;23.26;100.00;100943.62;1730186;81;21107;-83
2021/08/16 06:46:47;;;;;;;11.53;8.75;;;;;;;23.35;100.00;100946.46;1751140;80;21021;-83
2021/08/16 06:49:15;;;;;;;12.10;9.60;;;;;;;23.43;100.00;100946.31;1730313;80;21075;-82
2021/08/16 06:51:43;;;;;;;14.58;9.45;;;;;;;23.52;100.00;100945.66;1730204;82;21073;-82
2021/08/16 06:54:10;;;;;;;12.07;9.23;;;;;;;23.63;100.00;100949.13;1751395;80;21024;-82
2021/08/16 06:56:37;;;;;;;10.45;9.38;;;;;;;23.74;100.00;100949.61;1704405;80;21556;-83
2021/08/16 06:59:04;;;;;;;11.33;9.00;;;;;;;23.84;100.00;100942.09;1729938;81;20973;-83
2021/08/16 07:01:33;;;;;;;13.15;8.20;;;;;;;23.99;100.00;100944.66;1730073;82;21064;-82
2021/08/16 07:04:00;;;;;;;13.43;7.97;;;;;;;24.14;100.00;100947.70;1751460;80;21101;-82
2021/08/16 07:06:29;;;;;;;14.38;8.73;;;;;;;24.26;100.00;100945.61;1750660;79;21391;-83
2021/08/16 07:08:56;;;;;;;15.38;9.45;;;;;;;24.41;100.00;100937.98;1751135;80;21108;-83
2021/08/16 07:11:23;;;;;;;14.35;8.65;;;;;;;24.54;100.00;100939.38;1744489;79;21020;-83
2021/08/16 07:13:50;;;;;;;10.35;9.35;;;;;;;24.73;100.00;100936.48;1752821;80;21055;-83
2021/08/16 07:16:20;;;;;;;13.20;9.45;;;;;;;24.88;100.00;100931.48;1756742;80;21923;-84
2021/08/16 07:18:48;;;;;;;14.43;8.80;;;;;;;25.00;100.00;100931.18;1769720;80;21056;-84
2021/08/16 07:21:17;;;;;;;11.78;8.23;;;;;;;25.12;95.08;100934.05;1767639;79;21315;-85
2021/08/16 07:23:46;;;;;;;15.48;8.93;;;;;;;25.23;95.78;100925.15;1752162;80;21500;-86
2021/08/16 07:26:13;;;;;;;14.23;7.80;;;;;;;25.34;87.82;100928.54;1721329;79;20991;-84
2021/08/16 07:28:45;;;;;;;12.03;7.42;;;;;;;25.48;78.71;100927.53;1760421;80;21580;-84
2021/08/16 07:31:19;;;;;;;11.90;7.37;;;;;;;25.65;81.11;100923.09;1759353;80;21071;-86
2021/08/16 07:33:48;;;;;;;9.33;4.90;;;;;;;25.81;62.79;100922.64;1762952;80;20999;-86
2021/08/16 07:36:15;;;;;;;7.80;5.80;;;;;;;25.99;55.38;100921.97;1661867;82;21154;-85
2021/08/16 07:38:43;;;;;;;9.78;5.40;;;;;;;26.18;56.75;100929.31;1709925;82;21040;-85
2021/08/16 07:41:11;;;;;;;8.98;5.17;;;;;;;26.36;50.13;100932.11;1786301;80;21068;-85
2021/08/16 07:43:40;;;;;;;7.05;5.05;;;;;;;26.49;48.17;100927.23;1756682;80;21044;-85
2021/08/16 07:46:08;;;;;;;6.92;5.12;;;;;;;26.64;48.62;100930.12;1694716;81;21083;-86
2021/08/16 07:48:35;;;;;;;13.13;5.53;;;;;;;26.76;49.32;100921.23;1749847;79;21059;-85
2021/08/16 07:51:04;;;;;;;6.03;4.83;;;;;;;26.88;45.92;100922.69;1728773;79;21531;-86
2021/08/16 07:53:32;;;;;;;6.03;4.53;;;;;;;27.01;48.63;100924.95;1702155;81;21313;-86
2021/08/16 07:56:02;;;;;;;7.03;4.53;;;;;;;27.12;50.56;100920.78;1726402;80;21955;-87
2021/08/16 07:58:29;;;;;;;9.45;5.50;;;;;;;27.22;46.56;100920.58;1732620;79;21591;-86
2021/08/16 08:00:59;;;;;;;16.80;6.00;;;;;;;27.37;48.53;100924.77;1713055;81;21085;-86
2021/08/16 08:03:28;;;;;;;7.62;4.87;;;;;;;27.49;48.59;100913.66;1733944;81;21470;-85
2021/08/16 08:05:55;;;;;;;7.30;5.50;;;;;;;27.60;48.50;100911.30;1735658;80;21064;-85
2021/08/16 08:08:24;;;;;;;6.65;4.87;;;;;;;27.70;46.83;100907.06;1728715;81;21005;-85
2021/08/16 08:10:53;;;;;;;7.00;4.50;;;;;;;27.82;46.64;100905.00;1724815;80;21013;-86
2021/08/16 08:13:20;;;;;;;7.58;4.28;;;;;;;27.95;47.38;100904.83;1785558;79;21493;-84
2021/08/16 08:15:49;;;;;;;9.78;4.62;;;;;;;28.06;44.67;100901.95;1785511;79;21053;-84
2021/08/16 08:18:16;;;;;;;6.55;4.30;;;;;;;28.17;44.74;100901.20;1757293;79;21732;-86
2021/08/16 08:20:43;;;;;;;8.55;4.53;;;;;;;28.31;45.30;100899.17;1755001;80;21089;-85
2021/08/16 08:23:12;;;;;;;7.75;4.45;;;;;;;28.44;43.36;100900.81;1733982;81;21021;-84
2021/08/16 08:25:40;;;;;;;6.17;4.25;;;;;;;28.53;45.17;100895.14;1743612;80;21614;-85
2021/08/16 08:28:12;;;;;;;5.17;3.98;;;;;;;28.59;44.59;100883.00;1759569;79;21118;-85
2021/08/16 08:30:39;;;;;;;5.45;4.20;;;;;;;28.71;44.56;100876.89;1730618;80;22261;-84
2021/08/16 08:33:07;;;;;;;7.92;4.50;;;;;;;28.80;43.49;100875.52;1760025;80;21446;-85
2021/08/16 08:35:34;;;;;;;6.53;4.35;;;;;;;28.91;45.75;100874.70;1751323;80;21431;-85
2021/08/16 08:38:01;;;;;;;5.37;4.20;;;;;;;29.06;46.09;100875.59;1764262;80;21357;-85
2021/08/16 08:40:32;;;;;;;8.65;4.85;;;;;;;29.21;44.63;100871.08;1741681;81;21029;-85
2021/08/16 08:43:00;;;;;;;5.90;4.35;;;;;;;29.34;43.68;100869.25;1731082;79;21183;-83
2021/08/16 08:45:28;;;;;;;7.75;4.15;;;;;;;29.43;42.73;100875.89;1751775;80;21532;-84
2021/08/16 08:47:56;;;;;;;15.63;4.67;;;;;;;29.50;41.28;100871.72;1779127;79;21020;-85
2021/08/16 08:50:26;;;;;;;7.70;4.22;;;;;;;29.55;40.53;100876.67;1748211;80;21139;-85
2021/08/16 08:53:03;;;;;;;7.53;4.47;;;;;;;29.61;41.55;100868.73;1720297;80;21008;-85
2021/08/16 08:55:30;;;;;;;5.92;4.20;;;;;;;29.65;40.74;100866.67;1739412;81;22050;-84
2021/08/16 08:58:01;;;;;;;6.50;4.03;;;;;;;29.72;40.63;100862.02;1730439;80;21024;-85
2021/08/16 09:00:36;;;;;;;8.45;4.30;;;;;;;29.79;40.32;100861.06;1734445;80;21127;-85
2021/08/16 09:03:04;;;;;;;5.65;4.25;;;;;;;29.87;41.55;100856.12;1773091;79;21479;-84
2021/08/16 09:05:32;;;;;;;;;;;;;;;29.99;40.73;100856.11;1731452;81;21075;-82
2021/08/16 09:07:59;;;;;;;10.32;4.47;;;;;;;30.08;41.14;100856.55;1730304;81;21059;-84
2021/08/16 09:10:27;;;;;;;7.20;4.67;;;;;;;30.21;41.27;100853.56;1728777;80;21543;-84
2021/08/16 09:12:59;;;;;;;9.13;5.37;;;;;;;30.31;39.48;100854.27;1751800;80;21060;-83
2021/08/16 09:15:30;;;;;;;10.50;4.85;;;;;;;30.40;38.81;100857.39;1706064;81;21083;-85
2021/08/16 09:18:03;;;;;;;8.93;4.50;;;;;;;30.45;38.15;100856.12;1734665;81;21104;-85
2021/08/16 09:20:35;;;;;;;6.97;4.50;;;;;;;30.52;38.84;100843.92;1708095;82;21567;-84
2021/08/16 09:23:07;;;;;;;4.97;3.92;;;;;;;30.59;36.63;100853.14;1729369;81;21310;-84
2021/08/16 09:25:39;;;;;;;5.50;4.12;;;;;;;30.61;36.46;100851.83;1703347;81;21027;-84
2021/08/16 09:28:08;;;;;;;8.28;5.20;;;;;;;30.64;37.01;100845.98;1683711;82;21176;-84
2021/08/16 09:30:39;;;;;;;8.08;4.50;;;;;;;30.67;37.52;100845.50;1685313;82;21362;-84
2021/08/16 09:33:17;;;;;;;6.75;4.65;;;;;;;30.71;37.63;100845.83;1732835;80;21203;-85
2021/08/16 09:35:56;;;;;;;9.50;4.65;;;;;;;30.80;37.67;100847.05;1732601;79;21115;-85
2021/08/16 09:38:40;;;;;;;8.83;5.65;;;;;;;30.88;38.38;100847.70;1721886;80;21064;-84
2021/08/16 09:41:22;;;;;;;9.55;5.90;;;;;;;30.96;36.71;100852.66;1787148;79;21841;-83
2021/08/16 09:43:55;;;;;;;7.58;6.12;;;;;;;31.02;37.20;100847.63;1810552;79;21029;-83
2021/08/16 09:46:23;;;;;;;8.48;5.85;;;;;;;31.06;38.42;100847.41;1722687;80;21254;-83
2021/08/16 09:48:58;;;;;;;5.72;5.15;;;;;;;31.13;36.55;100843.23;1748895;78;20979;-83
2021/08/16 09:51:26;;;;;;;6.80;4.78;;;;;;;31.20;36.94;100837.69;1783719;79;21036;-84
2021/08/16 09:53:54;;;;;;;8.05;4.75;;;;;;;31.27;36.26;100839.66;1722515;80;21720;-82
2021/08/16 09:56:25;;;;;;;6.65;4.58;;;;;;;31.35;36.89;100845.96;1722463;79;21045;-83
2021/08/16 09:58:55;;;;;;;6.28;4.62;;;;;;;31.45;35.12;100846.06;1811852;79;22682;-84
2021/08/16 10:01:22;;;;;;;7.12;4.65;;;;;;;31.53;36.07;100840.80;1731827;82;21052;-83
2021/08/16 10:03:51;;;;;;;5.45;4.12;;;;;;;31.62;34.73;100839.81;1684211;82;21056;-84
2021/08/16 10:06:22;;;;;;;7.33;5.15;;;;;;;31.69;35.43;100839.11;1702695;80;21429;-83
2021/08/16 10:08:54;;;;;;;7.62;4.87;;;;;;;31.74;35.23;100833.80;1704502;82;21021;-84
2021/08/16 10:11:26;;;;;;;9.50;5.28;;;;;;;31.75;34.22;100834.09;1735386;80;21095;-84
2021/08/16 10:14:01;;;;;;;7.03;5.03;;;;;;;31.77;35.18;100837.32;1732038;79;22018;-83
2021/08/16 10:16:36;;;;;;;8.95;4.67;;;;;;;31.83;35.39;100843.58;1729213;79;34714;-84
2021/08/16 10:19:11;;;;;;;9.10;4.45;;;;;;;31.86;33.06;100838.22;1731035;80;21143;-83
2021/08/16 10:21:40;;;;;;;6.28;5.05;;;;;;;31.87;33.79;100839.84;1760319;80;21035;-84
2021/08/16 10:24:19;;;;;;;6.22;4.92;;;;;;;31.88;33.63;100835.58;1708835;81;21446;-86
2021/08/16 10:26:56;;;;;;;9.08;6.35;;;;;;;31.92;34.61;100837.23;1750718;80;21092;-85
2021/08/16 10:29:26;;;;;;;15.28;7.05;;;;;;;31.94;33.87;100833.22;1769450;79;21048;-84
2021/08/16 10:31:54;;;;;;;8.08;5.40;;;;;;;31.96;35.04;100831.60;1752293;80;21043;-87
2021/08/16 10:34:38;;;;;;;5.92;4.90;;;;;;;32.02;35.06;100829.78;1744105;80;21048;-87
2021/08/16 10:37:11;;;;;;;6.47;5.10;;;;;;;32.08;34.44;100834.97;1777387;79;21099;-87
2021/08/16 10:39:42;;;;;;;5.92;4.80;;;;;;;32.08;33.41;100835.48;1740568;80;21036;-85
2021/08/16 10:42:17;;;;;;;5.40;4.08;;;;;;;32.04;33.85;100832.49;1732311;80;20965;-87
2021/08/16 10:44:49;;;;;;;5.45;4.28;;;;;;;32.07;32.56;100834.69;1728433;80;21079;-85
2021/08/16 10:47:32;;;;;;;5.87;4.05;;;;;;;32.05;29.84;100826.05;1747388;80;20968;-87
2021/08/16 10:50:16;;;;;;;5.78;4.37;;;;;;;31.91;29.49;100828.33;1758115;79;21083;-87
2021/08/16 10:52:43;;;;;;;5.78;4.33;;;;;;;31.78;31.57;100824.15;1771537;80;21024;-87
2021/08/16 10:55:16;;;;;;;4.85;4.00;;;;;;;31.84;32.08;100822.33;1785131;79;21948;-88
2021/08/16 10:57:45;;;;;;;5.80;4.15;;;;;;;31.91;32.36;100818.10;1722904;80;21017;-86
2021/08/16 11:00:14;;;;;;;6.37;4.03;;;;;;;32.01;32.92;100813.34;1758048;80;21044;-87
2021/08/16 11:02:42;;;;;;;6.97;4.70;;;;;;;32.08;33.80;100816.13;1757545;80;21279;-86
2021/08/16 11:05:12;;;;;;;5.67;4.15;;;;;;;32.17;32.93;100815.11;1784625;79;20984;-87
2021/08/16 11:07:41;;;;;;;7.47;4.95;;;;;;;32.26;33.46;100811.44;1749210;80;21510;-86
2021/08/16 11:10:12;;;;;;;4.90;4.28;;;;;;;32.34;31.15;100805.58;1703480;80;21107;-85
2021/08/16 11:12:46;;;;;;;5.92;4.22;;;;;;;32.35;32.37;100805.86;1702543;79;20989;-86
2021/08/16 11:15:17;;;;;;;5.95;4.50;;;;;;;32.36;31.65;100808.84;1728345;80;21312;-87
2021/08/16 11:17:45;;;;;;;7.00;4.05;;;;;;;32.37;32.26;100810.47;1727674;81;21028;-87
2021/08/16 11:20:17;;;;;;;7.22;4.30;;;;;;;32.44;32.22;100808.08;1753684;80;21542;-88
2021/08/16 11:22:54;;;;;;;6.92;4.78;;;;;;;32.52;31.48;100804.91;1703747;81;21000;-87